Time;durP1;ratioP1;P1;durP2;ratioP2;P2;SDS_P1;SDS_P2;PMS_P1;PMS_P2;Temp;Humidity;BMP_temperature;BMP_pressure;BME280_temperature;BME280_humidity;BME280_pressure;Samples;Min_cycle;Max_cycle;Signal;HPM_P1;HPM_P2
2023/04/02 00:02:24;;;;;;;10.83;2.53;;;;;;;-144.73;91.20;54539.06;6253431;23;20031;-74
2023/04/02 00:05:29;;;;;;;10.00;2.73;;;;;;;-144.73;90.37;54551.38;6249435;23;20031;-74
2023/04/02 00:08:01;;;;;;;9.43;2.70;;;;;;;-144.73;90.44;54563.69;6205845;23;20036;-73
2023/04/02 00:10:36;;;;;;;13.10;2.57;;;;;;;-144.73;90.49;54559.59;6245640;23;20016;-73
2023/04/02 00:13:10;;;;;;;11.80;2.63;;;;;;;-144.73;90.10;54563.69;6253056;23;20004;-74
2023/04/02 00:15:41;;;;;;;11.60;1.73;;;;;;;-144.73;89.57;54631.44;6246583;23;20091;-73
2023/04/02 00:18:12;;;;;;;12.47;2.50;;;;;;;-144.73;89.79;54559.59;6250752;23;20082;-73
2023/04/02 00:20:41;;;;;;;13.57;1.65;;;;;;;-144.73;89.96;54551.38;6246376;23;20089;-74
2023/04/02 00:23:11;;;;;;;11.50;2.03;;;;;;;-144.73;90.57;54580.13;6251678;23;20000;-73
2023/04/02 00:25:41;;;;;;;12.93;2.00;;;;;;;-144.73;90.85;54563.69;6244264;23;20060;-73
2023/04/02 00:28:22;;;;;;;9.83;1.80;;;;;;;-144.73;91.09;54567.81;6253353;23;20016;-73
2023/04/02 00:30:54;;;;;;;7.03;1.87;;;;;;;-144.73;90.78;54541.13;6218754;23;20018;-74
2023/04/02 00:33:24;;;;;;;10.43;1.97;;;;;;;-144.73;90.83;54567.81;6252826;23;20000;-73
2023/04/02 00:35:52;;;;;;;11.07;2.47;;;;;;;-144.73;91.02;54555.47;6245065;23;20016;-72
2023/04/02 00:38:26;;;;;;;9.97;2.00;;;;;;;-144.73;90.94;54573.97;6225781;23;19996;-72
2023/04/02 00:40:55;;;;;;;12.77;3.10;;;;;;;-144.73;90.59;54576.00;6243687;23;20041;-72
2023/04/02 00:43:29;;;;;;;11.03;2.70;;;;;;;-144.73;90.79;54539.06;6251456;23;19996;-72
2023/04/02 00:46:02;;;;;;;11.70;2.73;;;;;;;-144.73;90.83;54526.75;6242969;23;20047;-72
2023/04/02 00:48:31;;;;;;;13.30;2.50;;;;;;;-144.73;91.62;54576.00;6250953;23;20000;-73
2023/04/02 00:51:00;;;;;;;11.67;2.23;;;;;;;-144.73;91.06;54578.06;6217929;23;20433;-72
2023/04/02 00:53:28;;;;;;;8.57;1.50;;;;;;;-144.73;90.96;54551.38;6252827;23;20004;-72
2023/04/02 00:55:56;;;;;;;12.23;2.43;;;;;;;-144.73;90.92;54559.59;6243270;23;20022;-73
2023/04/02 00:58:27;;;;;;;10.97;2.50;;;;;;;-144.73;90.97;54524.69;6250858;23;20317;-73
2023/04/02 01:00:53;;;;;;;10.63;2.07;;;;;;;-144.73;90.83;54571.91;6243770;23;20020;-73
2023/04/02 01:03:18;;;;;;;15.53;2.50;;;;;;;-144.73;90.47;54528.81;6252741;23;20000;-73
2023/04/02 01:06:15;;;;;;;11.17;1.87;;;;;;;-144.73;90.62;54559.59;6219144;23;20094;-73
2023/04/02 01:09:00;;;;;;;12.70;2.10;;;;;;;-144.73;90.74;54578.06;6226162;23;20012;-73
2023/04/02 01:11:34;;;;;;;9.97;1.87;;;;;;;-144.73;90.37;54563.69;6215721;23;20008;-73
2023/04/02 01:14:15;;;;;;;10.10;2.17;;;;;;;-144.73;90.54;54571.91;6252895;23;20011;-73
2023/04/02 01:17:00;;;;;;;7.77;1.60;;;;;;;-144.73;90.25;54567.81;6242722;23;20087;-73
2023/04/02 01:20:00;;;;;;;8.87;2.10;;;;;;;-144.73;90.24;54563.69;6222906;23;20062;-73
2023/04/02 01:22:54;;;;;;;8.50;1.70;;;;;;;-144.73;89.82;54565.75;6226297;23;20004;-73
2023/04/02 01:25:43;;;;;;;9.33;2.27;;;;;;;-144.73;90.09;54547.28;6187069;23;20028;-73
2023/04/02 01:28:19;;;;;;;11.63;2.60;;;;;;;-144.73;90.17;54555.47;6252115;23;20010;-73
2023/04/02 01:30:51;;;;;;;10.13;2.50;;;;;;;-144.73;89.91;54522.63;6245208;23;20461;-73
2023/04/02 01:33:21;;;;;;;18.92;1.90;;;;;;;-144.73;89.44;54573.97;6225923;23;20000;-73
2023/04/02 01:35:57;;;;;;;11.13;2.60;;;;;;;-144.73;89.31;54576.00;6244652;23;20016;-73
2023/04/02 01:38:31;;;;;;;11.83;1.80;;;;;;;-144.73;89.92;54551.38;6252068;23;20004;-73
2023/04/02 01:41:01;;;;;;;9.10;1.83;;;;;;;-144.73;89.01;54514.44;6242615;23;20039;-73
2023/04/02 01:43:48;;;;;;;13.57;2.60;;;;;;;-144.73;88.75;54547.28;6226371;23;20004;-72
2023/04/02 01:46:30;;;;;;;11.37;1.90;;;;;;;-144.73;87.88;54592.44;6241316;23;20021;-72
2023/04/02 01:48:56;;;;;;;;;;;;;;;-144.73;87.50;54582.16;6225859;23;20314;-72
2023/04/02 01:51:26;;;;;;;24.37;2.37;;;;;;;-144.73;86.76;54539.06;6215748;23;19911;-72
2023/04/02 01:53:52;;;;;;;7.83;2.10;;;;;;;-144.73;86.59;54580.13;6252637;23;19996;-72
2023/04/02 01:56:18;;;;;;;13.07;2.07;;;;;;;-144.73;86.38;54551.38;6242565;23;20345;-73
2023/04/02 01:58:45;;;;;;;10.10;2.10;;;;;;;-144.73;86.28;54557.53;6252625;23;20000;-73
2023/04/02 02:01:20;;;;;;;11.70;1.90;;;;;;;-144.73;86.25;54555.47;6241379;23;20095;-72
2023/04/02 02:03:46;;;;;;;10.40;2.20;;;;;;;-144.73;86.15;54539.06;6251046;23;20059;-72
2023/04/02 02:06:15;;;;;;;9.57;2.03;;;;;;;-144.73;86.13;54559.59;6217352;23;20047;-72
2023/04/02 02:08:48;;;;;;;11.10;2.63;;;;;;;-144.73;86.28;54547.28;6252352;23;20004;-73
2023/04/02 02:11:21;;;;;;;16.10;2.10;;;;;;;-144.73;86.50;54516.47;6243445;23;20065;-73
2023/04/02 02:13:57;;;;;;;11.63;2.07;;;;;;;-144.73;86.15;54543.16;6227965;23;20015;-73
2023/04/02 02:16:26;;;;;;;7.63;1.77;;;;;;;-144.73;86.25;54592.44;6242785;23;20020;-72
2023/04/02 02:18:55;;;;;;;11.40;2.20;;;;;;;-144.73;86.52;54592.44;6253952;23;20091;-73
2023/04/02 02:21:32;;;;;;;8.50;2.73;;;;;;;-144.73;87.23;54567.81;6242609;23;20477;-73
2023/04/02 02:23:59;;;;;;;11.80;1.93;;;;;;;-144.73;87.16;54539.06;6252207;23;20011;-72
2023/04/02 02:26:27;;;;;;;9.57;1.93;;;;;;;-144.73;86.89;54551.38;6217241;23;20091;-73
2023/04/02 02:28:56;;;;;;;11.63;2.37;;;;;;;-144.73;86.26;54580.13;6252500;23;19997;-73
2023/04/02 02:31:28;;;;;;;10.70;1.87;;;;;;;-144.73;87.27;54559.59;6242982;23;20038;-73
2023/04/02 02:34:01;;;;;;;13.47;1.57;;;;;;;-144.73;88.03;54541.13;6252893;23;20007;-73
2023/04/02 02:36:33;;;;;;;19.57;2.30;;;;;;;-144.73;87.87;54569.84;6242257;23;20008;-73
2023/04/02 02:39:12;;;;;;;10.07;1.90;;;;;;;-144.73;87.30;54592.44;6223187;23;20004;-73
2023/04/02 02:41:44;;;;;;;9.80;1.80;;;;;;;-144.73;87.74;54563.69;6244175;23;20043;-74
2023/04/02 02:44:09;;;;;;;;;;;;;;;-144.73;87.34;54600.63;6253375;23;20008;-73
2023/04/02 02:46:48;;;;;;;11.30;1.98;;;;;;;-144.73;87.97;54567.81;6244216;23;19908;-73
2023/04/02 02:49:18;;;;;;;10.13;2.10;;;;;;;-144.73;88.28;54543.16;6251020;23;20003;-73
2023/04/02 02:52:07;;;;;;;13.43;2.50;;;;;;;-144.73;88.73;54514.44;6254318;23;20413;-73
2023/04/02 02:54:35;;;;;;;9.53;1.90;;;;;;;-144.73;88.86;54563.69;6195784;23;20016;-73
2023/04/02 02:57:05;;;;;;;14.93;2.43;;;;;;;-144.73;89.07;54543.16;6252004;23;20099;-73
2023/04/02 02:59:31;;;;;;;7.33;1.77;;;;;;;-144.73;88.86;54559.59;6223824;23;20008;-73
2023/04/02 03:01:58;;;;;;;7.40;1.90;;;;;;;-144.73;89.18;54588.31;6253991;23;20049;-74
2023/04/02 03:04:24;;;;;;;8.17;2.00;;;;;;;-144.73;88.88;54541.13;6250334;23;19997;-73
2023/04/02 03:06:51;;;;;;;11.13;2.20;;;;;;;-144.73;89.24;54539.06;6226746;23;20083;-73
2023/04/02 03:09:36;;;;;;;9.13;1.77;;;;;;;-144.73;89.17;54530.84;6251371;23;19996;-73
2023/04/02 03:12:25;;;;;;;17.77;1.83;;;;;;;-144.73;89.95;54551.38;6227105;23;20042;-73
2023/04/02 03:15:02;;;;;;;13.93;2.07;;;;;;;-144.73;89.59;54567.81;6250095;23;20108;-73
2023/04/02 03:17:40;;;;;;;9.70;1.90;;;;;;;-144.73;90.41;54551.38;6251408;23;20000;-73
2023/04/02 03:20:21;;;;;;;11.03;1.63;;;;;;;-144.73;90.29;54588.31;6248158;23;20043;-74
2023/04/02 03:22:56;;;;;;;9.40;2.30;;;;;;;-144.73;90.11;54559.59;6226598;23;20007;-74
2023/04/02 03:25:35;;;;;;;10.50;1.87;;;;;;;-144.73;90.01;54567.81;6220760;23;20008;-74
2023/04/02 03:28:05;;;;;;;8.77;1.83;;;;;;;-144.73;90.93;54530.84;6251389;23;20086;-74
2023/04/02 03:30:44;;;;;;;12.83;2.27;;;;;;;-144.73;91.43;54530.84;6247152;23;20023;-74
2023/04/02 03:33:34;;;;;;;8.13;1.90;;;;;;;-144.73;90.83;54588.31;6252293;23;20004;-74
2023/04/02 03:36:18;;;;;;;12.50;1.73;;;;;;;-144.73;91.15;54559.59;6217274;23;20012;-74
2023/04/02 03:38:50;;;;;;;9.17;1.80;;;;;;;-144.73;90.97;54559.59;6253006;23;19995;-74
2023/04/02 03:41:21;;;;;;;13.33;2.10;;;;;;;-144.73;90.43;54559.59;6242397;23;20059;-73
2023/04/02 03:43:54;;;;;;;10.07;1.42;;;;;;;-144.73;90.75;54522.63;6227221;23;20341;-73
2023/04/02 03:46:29;;;;;;;8.73;2.17;;;;;;;-144.73;90.67;54545.22;6216348;23;20020;-73
2023/04/02 03:49:00;;;;;;;14.13;1.93;;;;;;;-144.73;91.34;54543.16;6252767;23;20004;-74
2023/04/02 03:51:31;;;;;;;;;;;;;;;-144.73;90.92;54559.59;6242201;23;20016;-74
2023/04/02 03:53:57;;;;;;;10.67;2.00;;;;;;;-144.73;91.22;54588.31;6216181;23;19904;-74
2023/04/02 03:56:29;;;;;;;8.13;2.07;;;;;;;-144.73;91.15;54580.13;6241379;23;20345;-74
2023/04/02 03:59:09;;;;;;;5.97;1.73;;;;;;;-144.73;91.25;54555.47;6251642;23;20079;-74
2023/04/02 04:01:43;;;;;;;15.53;1.93;;;;;;;-144.73;91.80;54563.69;6216512;23;20015;-74
2023/04/02 04:04:18;;;;;;;9.10;1.70;;;;;;;-144.73;91.93;54569.84;6251110;23;20000;-73
2023/04/02 04:06:47;;;;;;;12.17;1.93;;;;;;;-144.73;91.97;54516.47;6251752;23;20022;-74
2023/04/02 04:09:25;;;;;;;14.90;1.93;;;;;;;-144.73;92.31;54522.63;6224072;23;20000;-73
2023/04/02 04:11:58;;;;;;;9.03;2.03;;;;;;;-144.73;92.83;54567.81;6226262;23;20010;-74
2023/04/02 04:14:33;;;;;;;13.80;1.90;;;;;;;-144.73;91.94;54551.38;6251597;23;20180;-74
2023/04/02 04:17:14;;;;;;;13.67;1.90;;;;;;;-144.73;91.07;54592.44;6251814;23;19996;-73
2023/04/02 04:19:53;;;;;;;8.57;2.40;;;;;;;-144.73;91.19;54530.84;6223380;23;20043;-73
2023/04/02 04:22:31;;;;;;;10.67;1.60;;;;;;;-144.73;91.14;54559.59;6226237;23;20077;-73
2023/04/02 04:25:04;;;;;;;9.33;1.70;;;;;;;-144.73;90.19;54567.81;6247176;23;20012;-73
2023/04/02 04:27:54;;;;;;;7.80;1.17;;;;;;;-144.73;90.17;54588.31;6250514;23;20008;-73
2023/04/02 04:30:44;;;;;;;8.80;1.47;;;;;;;-144.73;90.44;54567.81;6245636;23;20489;-73
2023/04/02 04:33:24;;;;;;;11.47;1.40;;;;;;;-144.73;91.36;54539.06;6225990;23;20000;-73
2023/04/02 04:35:56;;;;;;;10.77;1.50;;;;;;;-144.73;90.71;54559.59;6245075;23;20023;-73
2023/04/02 04:38:32;;;;;;;8.37;1.73;;;;;;;-144.73;90.80;54526.75;6251019;23;20061;-73
2023/04/02 04:41:02;;;;;;;7.73;1.50;;;;;;;-144.73;90.50;54539.06;6217626;23;20023;-72
2023/04/02 04:44:00;;;;;;;11.63;2.20;;;;;;;-144.73;90.63;54576.00;6251505;23;20388;-73
2023/04/02 04:46:40;;;;;;;8.63;1.27;;;;;;;-144.73;89.90;54553.44;6189184;23;20013;-73
2023/04/02 04:49:41;;;;;;;8.97;1.40;;;;;;;-144.73;90.20;54539.06;6250031;23;20040;-72
2023/04/02 04:52:16;;;;;;;6.03;1.40;;;;;;;-144.73;89.65;54588.31;6105592;23;20017;-73
2023/04/02 04:54:41;;;;;;;10.13;1.50;;;;;;;-144.73;89.61;54555.47;6205463;23;20062;-72
2023/04/02 04:57:21;;;;;;;11.53;2.17;;;;;;;-144.73;89.46;54547.28;6225719;23;19999;-73
2023/04/02 04:59:56;;;;;;;10.17;1.40;;;;;;;-144.73;88.49;54571.91;6248126;23;20005;-73
2023/04/02 05:02:37;;;;;;;7.60;1.40;;;;;;;-144.73;88.43;54567.81;6226343;23;20008;-72
2023/04/02 05:05:02;;;;;;;9.40;1.37;;;;;;;-144.73;88.34;54543.16;6246880;23;20099;-72
2023/04/02 05:07:42;;;;;;;3.13;1.40;;;;;;;-144.73;88.28;54588.31;6225189;23;20038;-72
2023/04/02 05:10:24;;;;;;;9.70;1.70;;;;;;;-144.73;87.92;54559.59;6220779;23;20019;-72
2023/04/02 05:12:59;;;;;;;8.57;1.65;;;;;;;-144.73;87.61;54559.59;6226642;23;20000;-72
2023/04/02 05:15:30;;;;;;;14.00;1.30;;;;;;;-144.73;87.62;54553.44;6245394;23;20016;-73
2023/04/02 05:18:11;;;;;;;13.02;3.00;;;;;;;-144.73;87.81;54539.06;6252493;23;20071;-73
2023/04/02 05:20:55;;;;;;;6.00;1.30;;;;;;;-144.73;87.30;54547.28;6246315;23;20019;-73
2023/04/02 05:23:26;;;;;;;3.13;0.90;;;;;;;-144.73;87.17;54551.38;6225766;23;20043;-73
2023/04/02 05:26:12;;;;;;;10.20;1.77;;;;;;;-144.73;87.03;54543.16;6218150;23;20020;-75
2023/04/02 05:29:05;;;;;;;6.87;1.80;;;;;;;-144.73;86.79;54530.84;6252308;23;20008;-73
2023/04/02 05:31:39;;;;;;;7.03;1.67;;;;;;;-144.73;86.02;54539.06;6240626;23;20091;-73
2023/04/02 05:34:05;;;;;;;9.77;1.73;;;;;;;-144.73;85.85;54586.28;6226292;23;20110;-73
2023/04/02 05:36:33;;;;;;;15.05;2.63;;;;;;;-144.73;85.44;54586.28;6214945;23;20104;-73
2023/04/02 05:38:59;;;;;;;9.32;1.73;;;;;;;-144.73;85.81;54559.59;6225577;23;20012;-73
2023/04/02 05:41:41;;;;;;;11.95;1.60;;;;;;;-144.73;85.19;54526.75;6217852;23;20015;-73
2023/04/02 05:44:33;;;;;;;5.97;1.58;;;;;;;-144.73;85.08;54588.31;6226779;23;20011;-73
2023/04/02 05:47:18;;;;;;;4.00;1.50;;;;;;;-144.73;84.88;54567.81;6253241;23;20007;-73
2023/04/02 05:49:50;;;;;;;6.65;1.27;;;;;;;-144.73;84.70;54563.69;6225038;23;20476;-73
2023/04/02 05:52:24;;;;;;;9.23;1.67;;;;;;;-144.73;84.08;54608.84;6253475;23;20011;-73
2023/04/02 05:55:05;;;;;;;5.05;1.45;;;;;;;-144.73;83.60;54576.00;6251770;23;20012;-73
2023/04/02 05:57:36;;;;;;;12.27;1.60;;;;;;;-144.73;83.70;54547.28;6227723;23;20065;-73
2023/04/02 06:00:14;;;;;;;13.63;1.75;;;;;;;-144.73;83.75;54580.13;6250395;23;20012;-73
2023/04/02 06:03:05;;;;;;;6.20;1.50;;;;;;;-144.73;83.47;54563.69;6253978;23;20004;-73
2023/04/02 06:05:41;;;;;;;7.63;1.55;;;;;;;-144.73;83.03;54567.81;6246950;23;20519;-73
2023/04/02 06:08:17;;;;;;;4.78;1.50;;;;;;;-144.73;83.36;54543.16;6227726;23;20019;-73
2023/04/02 06:10:54;;;;;;;12.35;1.42;;;;;;;-144.73;82.54;54526.75;6220958;23;20012;-73
2023/04/02 06:13:19;;;;;;;11.65;1.65;;;;;;;-144.73;82.78;54559.59;6254008;23;20004;-74
2023/04/02 06:15:45;;;;;;;8.07;1.52;;;;;;;-144.73;82.28;54592.44;6247652;23;20008;-74
2023/04/02 06:18:28;;;;;;;9.35;2.03;;;;;;;-144.73;82.59;54563.69;6252937;23;20070;-74
2023/04/02 06:20:54;;;;;;;6.75;1.70;;;;;;;-144.73;82.06;54530.84;6246784;23;20024;-74
2023/04/02 06:23:42;;;;;;;10.70;1.65;;;;;;;-144.73;82.14;54588.31;6228282;23;20007;-74
2023/04/02 06:26:21;;;;;;;5.55;1.77;;;;;;;-144.73;82.25;54567.81;6218403;23;20015;-74
2023/04/02 06:28:56;;;;;;;9.00;1.58;;;;;;;-144.73;82.76;54567.81;6253578;23;20091;-74
2023/04/02 06:32:00;;;;;;;7.00;1.48;;;;;;;-144.73;82.69;54559.59;6218376;23;20061;-74
2023/04/02 06:34:28;;;;;;;10.32;1.60;;;;;;;-144.73;82.76;54559.59;6159104;23;20029;-73
2023/04/02 06:37:11;;;;;;;12.60;1.80;;;;;;;-144.73;82.23;54571.91;6212582;23;20000;-72
2023/04/02 06:39:36;;;;;;;8.60;1.58;;;;;;;-144.73;82.04;54559.59;6251598;23;20020;-73
2023/04/02 06:42:09;;;;;;;11.10;1.73;;;;;;;-144.73;82.03;54510.31;6255292;23;20008;-73
2023/04/02 06:44:36;;;;;;;15.32;1.80;;;;;;;-144.73;81.62;54524.69;6252177;23;20012;-74
2023/04/02 06:47:10;;;;;;;6.80;1.27;;;;;;;-144.73;81.79;54571.91;6253234;23;20004;-74
2023/04/02 06:49:47;;;;;;;14.32;1.77;;;;;;;-144.73;80.44;54576.00;6251648;23;20020;-74
2023/04/02 06:52:24;;;;;;;6.00;1.15;;;;;;;-144.73;81.16;54522.63;6227497;23;20096;-74
2023/04/02 06:54:50;;;;;;;7.28;1.40;;;;;;;-144.73;80.27;54571.91;6224279;23;20008;-73
2023/04/02 06:57:16;;;;;;;4.43;1.35;;;;;;;-144.73;79.94;54571.91;6227461;23;19997;-72
2023/04/02 06:59:41;;;;;;;12.23;1.50;;;;;;;-144.73;80.24;54551.38;6225101;23;20022;-73
2023/04/02 07:02:35;;;;;;;8.07;1.27;;;;;;;-144.73;79.96;54559.59;6230342;23;20000;-73
2023/04/02 07:05:05;;;;;;;9.88;1.63;;;;;;;-144.73;80.67;54571.91;6226808;23;20404;-75
2023/04/02 07:07:30;;;;;;;4.53;1.45;;;;;;;-144.73;79.96;54553.44;6255743;23;20010;-73
2023/04/02 07:09:56;;;;;;;9.35;1.50;;;;;;;-144.73;79.63;54600.63;6250768;23;20072;-68
2023/04/02 07:12:23;;;;;;;5.10;1.25;;;;;;;-144.73;79.70;54551.38;6255020;23;20000;-68
2023/04/02 07:14:49;;;;;;;9.80;1.40;;;;;;;-144.73;79.92;54571.91;6250335;23;20008;-68
2023/04/02 07:17:16;;;;;;;5.85;1.48;;;;;;;-144.73;79.10;54576.00;6253657;23;19996;-68
2023/04/02 07:19:44;;;;;;;7.60;1.45;;;;;;;-144.73;78.93;54563.69;6224814;23;20019;-68
2023/04/02 07:22:10;;;;;;;4.00;1.10;;;;;;;-144.73;78.35;54551.38;6228242;23;20008;-68
2023/04/02 07:24:36;;;;;;;9.73;1.85;;;;;;;-144.73;77.98;54530.84;6225336;23;20036;-68
2023/04/02 07:27:01;;;;;;;8.85;1.88;;;;;;;-144.73;77.59;54551.38;6228437;23;20031;-68
2023/04/02 07:29:27;;;;;;;8.95;1.75;;;;;;;-144.73;77.46;54559.59;6253233;23;20016;-68
2023/04/02 07:31:52;;;;;;;13.77;1.35;;;;;;;-144.73;77.83;54551.38;6228222;23;20322;-68
2023/04/02 07:34:18;;;;;;;8.65;1.33;;;;;;;-144.73;76.93;54543.16;6253338;23;20007;-68
2023/04/02 07:36:43;;;;;;;3.70;1.10;;;;;;;-144.73;76.67;54584.22;6228198;23;19992;-68
2023/04/02 07:39:09;;;;;;;7.88;1.63;;;;;;;-144.73;76.39;54539.06;6254105;23;20115;-67
2023/04/02 07:41:51;;;;;;;6.57;1.50;;;;;;;-144.73;75.49;54559.59;6255115;23;19996;-67
2023/04/02 07:44:16;;;;;;;5.55;1.20;;;;;;;-144.73;76.03;54588.31;6253831;23;20000;-68
2023/04/02 07:46:41;;;;;;;6.82;1.35;;;;;;;-144.73;75.77;54559.59;6253435;23;20012;-69
2023/04/02 07:49:07;;;;;;;7.07;1.73;;;;;;;-144.73;75.17;54543.16;6253740;23;20012;-69
2023/04/02 07:51:32;;;;;;;11.52;1.60;;;;;;;-144.73;74.75;54580.13;6253703;23;20368;-68
2023/04/02 07:54:00;;;;;;;6.25;1.25;;;;;;;-144.73;74.49;54557.53;6255139;23;20027;-68
2023/04/02 07:56:27;;;;;;;3.45;1.02;;;;;;;-144.73;74.74;54539.06;6217505;23;20061;-68
2023/04/02 07:58:53;;;;;;;10.52;1.50;;;;;;;-144.73;73.94;54539.06;6228056;23;20004;-68
2023/04/02 08:01:24;;;;;;;6.32;1.40;;;;;;;-144.73;73.49;54539.06;6218325;23;20012;-68
2023/04/02 08:03:50;;;;;;;;;;;;;;;-144.73;74.09;54514.44;6228348;23;20062;-68
2023/04/02 08:06:16;;;;;;;5.75;1.23;;;;;;;-144.73;74.03;54584.22;6218102;23;19907;-68
2023/04/02 08:08:44;;;;;;;6.57;1.83;;;;;;;-144.73;73.79;54571.91;6228215;23;20012;-68
2023/04/02 08:11:10;;;;;;;6.65;1.27;;;;;;;-144.73;73.75;54545.22;6246412;23;20095;-69
2023/04/02 08:13:36;;;;;;;6.47;1.40;;;;;;;-144.73;72.80;54543.16;6256388;23;20042;-69
2023/04/02 08:16:03;;;;;;;5.68;1.00;;;;;;;-144.73;72.82;54522.63;6220422;23;20023;-69
2023/04/02 08:18:29;;;;;;;5.22;1.60;;;;;;;-144.73;72.20;54563.69;6254839;23;20137;-69
2023/04/02 08:20:56;;;;;;;10.18;2.17;;;;;;;-144.73;71.51;54502.13;6220435;23;20012;-69
2023/04/02 08:23:22;;;;;;;7.22;1.20;;;;;;;-144.73;72.39;54528.81;6228928;23;20019;-69
2023/04/02 08:25:48;;;;;;;5.45;2.22;;;;;;;-144.73;71.10;54485.69;6219430;23;20012;-66
2023/04/02 08:28:14;;;;;;;8.50;1.98;;;;;;;-144.73;71.00;54555.47;6254567;23;20054;-67
2023/04/02 08:30:39;;;;;;;5.22;1.38;;;;;;;-144.73;69.90;54541.13;6244976;23;20016;-68
2023/04/02 08:33:05;;;;;;;13.85;1.73;;;;;;;-144.73;70.14;54539.06;6252433;23;20007;-68
2023/04/02 08:35:31;;;;;;;8.30;1.55;;;;;;;-144.73;70.34;54512.38;6247041;23;20031;-67
2023/04/02 08:37:57;;;;;;;6.53;1.73;;;;;;;-144.73;69.67;54545.22;6227381;23;19996;-68
2023/04/02 08:40:28;;;;;;;8.43;1.40;;;;;;;-144.73;66.68;54524.69;6221571;23;20436;-69
2023/04/02 08:43:21;;;;;;;4.28;0.90;;;;;;;-144.73;65.29;54604.75;6252896;23;20369;-67
2023/04/02 08:45:55;;;;;;;3.35;1.23;;;;;;;-144.73;67.62;54518.53;6246171;23;20012;-68
2023/04/02 08:48:22;;;;;;;6.50;1.55;;;;;;;-144.73;67.03;54557.53;6226804;23;20008;-68
2023/04/02 08:50:49;;;;;;;7.32;1.17;;;;;;;-144.73;68.05;54510.31;6219269;23;20043;-68
2023/04/02 08:53:26;;;;;;;9.93;1.70;;;;;;;-144.73;68.21;54526.75;6227590;23;20007;-67
2023/04/02 08:56:16;;;;;;;5.13;1.15;;;;;;;-144.73;67.31;54555.47;6244543;23;20016;-67
2023/04/02 08:58:55;;;;;;;10.45;1.35;;;;;;;-144.73;67.54;54549.31;6244028;23;20027;-68
2023/04/02 09:01:43;;;;;;;5.95;1.63;;;;;;;-144.73;67.83;54567.81;6210875;23;20035;-68
2023/04/02 09:04:15;;;;;;;4.95;1.50;;;;;;;-144.73;65.94;54524.69;6220068;23;20015;-68
2023/04/02 09:06:42;;;;;;;8.35;1.30;;;;;;;-144.73;64.57;54543.16;6220552;23;20056;-68
2023/04/02 09:09:10;;;;;;;4.93;1.13;;;;;;;-144.73;65.04;54604.75;6219639;23;20437;-68
2023/04/02 09:11:50;;;;;;;4.32;1.20;;;;;;;-144.73;64.38;54524.69;6221918;23;19996;-68
2023/04/02 09:14:35;;;;;;;6.60;1.35;;;;;;;-144.73;64.33;54504.16;6245867;23;20000;-68
2023/04/02 09:17:03;;;;;;;6.40;1.30;;;;;;;-144.73;64.17;54506.22;6245464;23;19992;-67
2023/04/02 09:19:36;;;;;;;7.63;1.13;;;;;;;-144.73;63.63;54518.53;6219441;23;20018;-68
2023/04/02 09:22:20;;;;;;;3.25;1.23;;;;;;;-144.73;63.39;54539.06;6221613;23;20519;-68
2023/04/02 09:24:53;;;;;;;5.00;1.23;;;;;;;-144.73;63.24;54539.06;6242098;23;20012;-68
2023/04/02 09:27:23;;;;;;;4.03;1.35;;;;;;;-144.73;62.61;54522.63;6220733;23;20012;-68
2023/04/02 09:30:02;;;;;;;6.70;1.50;;;;;;;-144.73;60.95;54498.00;6242089;23;20047;-68
2023/04/02 09:32:54;;;;;;;3.38;1.20;;;;;;;-144.73;59.79;54543.16;6247278;23;20485;-68
2023/04/02 09:35:22;;;;;;;5.75;0.80;;;;;;;-144.73;59.02;54514.44;6215631;23;20068;-68
2023/04/02 09:38:07;;;;;;;2.88;1.05;;;;;;;-144.73;57.61;54508.28;6220514;23;20000;-68
2023/04/02 09:41:00;;;;;;;4.07;1.80;;;;;;;-144.73;57.85;54498.00;6214278;23;20091;-68
2023/04/02 09:43:37;;;;;;;5.50;1.10;;;;;;;-144.73;57.02;54493.91;6245276;23;20000;-68
2023/04/02 09:46:17;;;;;;;5.22;1.30;;;;;;;-144.73;56.28;54539.06;6211337;23;20016;-68
2023/04/02 09:48:53;;;;;;;5.75;1.98;;;;;;;-144.73;56.13;54539.06;6244844;23;20019;-68
2023/04/02 09:51:22;;;;;;;4.28;0.98;;;;;;;-144.73;56.09;54489.81;6209901;23;20014;-68
2023/04/02 09:53:50;;;;;;;4.65;1.42;;;;;;;-144.73;57.10;54516.47;6221261;23;20014;-68
2023/04/02 09:56:18;;;;;;;2.53;1.10;;;;;;;-144.73;58.00;54549.31;6238307;23;20031;-68
2023/04/02 09:58:45;;;;;;;4.47;1.67;;;;;;;-144.73;58.67;54518.53;6245638;23;20010;-72
2023/04/02 10:01:27;;;;;;;6.78;1.38;;;;;;;-144.73;58.31;54510.31;6209073;23;20021;-73
2023/04/02 10:03:52;;;;;;;6.18;1.10;;;;;;;-144.73;57.92;54506.22;6245884;23;20015;-73
2023/04/02 10:06:17;;;;;;;6.07;1.20;;;;;;;-144.73;57.10;54530.84;6234162;23;20012;-73
2023/04/02 10:08:44;;;;;;;8.85;1.73;;;;;;;-144.73;54.84;54461.06;6243281;23;20008;-73
2023/04/02 10:11:30;;;;;;;6.85;1.23;;;;;;;-144.73;55.36;54522.63;6236290;23;20028;-73
2023/04/02 10:14:08;;;;;;;6.32;1.42;;;;;;;-144.73;53.86;54510.31;6219075;23;19996;-72
2023/04/02 10:16:39;;;;;;;6.45;1.35;;;;;;;-144.73;54.39;54510.31;6235312;23;20020;-75
2023/04/02 10:19:21;;;;;;;7.68;1.13;;;;;;;-144.73;55.74;54506.22;6217743;23;20011;-73
2023/04/02 10:21:48;;;;;;;7.07;1.30;;;;;;;-144.73;55.05;54456.97;6209158;23;20066;-73
2023/04/02 10:24:17;;;;;;;3.95;1.25;;;;;;;-144.73;54.71;54489.81;6243917;23;19996;-74
2023/04/02 10:26:51;;;;;;;7.10;2.20;;;;;;;-144.73;54.51;54485.69;6220670;23;20403;-74
2023/04/02 10:29:45;;;;;;;5.03;1.60;;;;;;;-144.73;53.80;54520.59;6244245;23;20401;-74
2023/04/02 10:32:20;;;;;;;5.40;1.50;;;;;;;-144.73;54.02;54522.63;6244242;23;20000;-73
2023/04/02 10:35:21;;;;;;;5.00;1.90;;;;;;;-144.73;53.35;54489.81;6218971;23;20012;-73
2023/04/02 10:37:54;;;;;;;8.65;2.08;;;;;;;-144.73;55.58;54502.13;6139718;23;19998;-73
2023/04/02 10:40:46;;;;;;;6.75;1.85;;;;;;;-144.73;56.29;54510.31;6241755;23;20020;-74
2023/04/02 10:43:39;;;;;;;6.95;1.52;;;;;;;-144.73;55.65;54493.91;6194701;23;20011;-72
2023/04/02 10:46:20;;;;;;;7.68;1.50;;;;;;;-144.73;55.22;54518.53;6208579;23;20028;-73
2023/04/02 10:49:08;;;;;;;9.75;2.53;;;;;;;-144.73;56.07;54514.44;6221092;23;20008;-73
2023/04/02 10:51:43;;;;;;;5.63;1.58;;;;;;;-144.73;55.46;54518.53;6237559;23;20012;-74
2023/04/02 10:54:44;;;;;;;5.70;1.48;;;;;;;-144.73;53.60;54477.47;6244743;23;20007;-73
2023/04/02 10:57:25;;;;;;;8.67;1.47;;;;;;;-144.73;52.04;54459.00;6247016;23;20079;-73
2023/04/02 11:00:04;;;;;;;4.43;1.17;;;;;;;-144.73;53.08;54518.53;6217383;23;20609;-73
2023/04/02 11:03:08;;;;;;;4.10;1.17;;;;;;;-144.73;52.63;54485.69;6247044;23;19996;-72
2023/04/02 11:05:42;;;;;;;5.18;1.20;;;;;;;-144.73;52.73;54506.22;6209831;23;20035;-73
2023/04/02 11:08:25;;;;;;;5.55;1.08;;;;;;;-144.73;51.43;54506.22;6216929;23;20001;-72
2023/04/02 11:10:55;;;;;;;6.88;1.63;;;;;;;-144.73;52.54;54514.44;6212963;23;20016;-74
2023/04/02 11:13:41;;;;;;;6.40;1.00;;;;;;;-144.73;52.44;54520.59;6245963;23;20094;-74
2023/04/02 11:16:09;;;;;;;9.50;1.65;;;;;;;-144.73;52.39;54539.06;6211723;23;20024;-73
2023/04/02 11:18:36;;;;;;;6.80;1.33;;;;;;;-144.73;51.77;54539.06;6221519;23;20000;-73
2023/04/02 11:21:24;;;;;;;4.60;1.70;;;;;;;-144.73;52.54;54469.28;6237205;23;20089;-73
2023/04/02 11:23:57;;;;;;;6.97;1.48;;;;;;;-144.73;48.52;54489.81;6248623;23;20039;-73
2023/04/02 11:26:37;;;;;;;5.97;1.25;;;;;;;-144.73;50.42;54475.44;6210733;23;20020;-73
2023/04/02 11:29:14;;;;;;;4.50;1.50;;;;;;;-144.73;48.68;54483.66;6221089;23;20004;-72
2023/04/02 11:31:42;;;;;;;4.47;1.13;;;;;;;-144.73;49.86;54473.38;6206426;23;20020;-75
2023/04/02 11:34:41;;;;;;;9.45;2.03;;;;;;;-144.73;50.21;54473.38;6246398;23;20067;-72
2023/04/02 11:37:09;;;;;;;4.32;1.17;;;;;;;-144.73;49.04;54473.38;6246892;23;20004;-73
2023/04/02 11:39:58;;;;;;;2.47;0.98;;;;;;;-144.73;49.44;54510.31;6243241;23;20039;-72
2023/04/02 11:42:28;;;;;;;5.10;1.20;;;;;;;-144.73;48.70;54473.38;6221416;23;20028;-73
2023/04/02 11:44:55;;;;;;;3.67;1.20;;;;;;;-144.73;49.52;54489.81;6213619;23;20024;-73
2023/04/02 11:47:22;;;;;;;5.18;1.20;;;;;;;-144.73;49.60;54530.84;6245429;23;20007;-73
2023/04/02 11:49:53;;;;;;;7.20;1.60;;;;;;;-144.73;49.62;54473.38;6243123;23;20015;-72